createdAt,value
2023-04-16T00:02:00.533Z,71.42
2023-04-16T00:04:27.894Z,71.39
2023-04-16T00:06:54.992Z,71.74
2023-04-16T00:09:21.892Z,71.97
2023-04-16T00:11:48.752Z,71.94
2023-04-16T00:14:15.673Z,72.17
2023-04-16T00:16:42.875Z,72.13
2023-04-16T00:19:10.129Z,72.18
2023-04-16T00:21:37.378Z,73.02
2023-04-16T00:24:04.418Z,73.15
2023-04-16T00:26:31.377Z,72.05
2023-04-16T00:28:58.945Z,71.55
2023-04-16T00:31:29.974Z,72.55
2023-04-16T00:33:57.526Z,72.46
2023-04-16T00:36:25.189Z,72.42
2023-04-16T00:38:52.685Z,72.51
2023-04-16T00:41:19.945Z,72.53
2023-04-16T00:43:47.395Z,72.97
2023-04-16T00:46:15.482Z,72.96
2023-04-16T00:48:43.248Z,72.65
2023-04-16T00:51:11.115Z,74.19
2023-04-16T00:53:38.296Z,73.72
2023-04-16T00:56:06.654Z,73.84
2023-04-16T00:58:34.585Z,73.65
2023-04-16T01:01:01.851Z,74.40
2023-04-16T01:03:47.435Z,74.23
2023-04-16T01:06:16.148Z,73.89
2023-04-16T01:08:43.323Z,74.00
2023-04-16T01:11:11.689Z,73.77
2023-04-16T01:13:38.973Z,74.13
2023-04-16T01:16:09.421Z,73.90
2023-04-16T01:18:37.179Z,73.85
2023-04-16T01:21:04.887Z,74.19
2023-04-16T01:23:32.272Z,74.26
2023-04-16T01:25:59.229Z,74.07
2023-04-16T01:28:26.339Z,74.07
2023-04-16T01:30:53.332Z,74.18
2023-04-16T01:33:28.171Z,74.19
2023-04-16T01:35:55.134Z,73.74
2023-04-16T01:38:22.023Z,72.96
2023-04-16T01:40:49.102Z,73.55
2023-04-16T01:43:15.905Z,73.95
2023-04-16T01:45:42.840Z,74.77
2023-04-16T01:48:11.916Z,74.86
2023-04-16T01:50:38.826Z,74.70
2023-04-16T01:53:06.041Z,74.72
2023-04-16T01:55:33.885Z,75.41
2023-04-16T01:58:00.903Z,74.01
2023-04-16T02:00:30.073Z,74.19
2023-04-16T02:02:57.199Z,74.42
2023-04-16T02:05:26.191Z,74.64
2023-04-16T02:07:53.051Z,74.73
2023-04-16T02:10:20.306Z,75.04
2023-04-16T02:12:47.624Z,74.91
2023-04-16T02:15:15.949Z,74.94
2023-04-16T02:17:42.855Z,74.66
2023-04-16T02:20:10.878Z,74.48
2023-04-16T02:22:47.105Z,74.56
2023-04-16T02:25:15.430Z,74.61
2023-04-16T02:27:42.871Z,74.72
2023-04-16T02:30:40.213Z,74.83
2023-04-16T02:33:10.030Z,74.67
2023-04-16T02:35:39.335Z,74.89
2023-04-16T02:38:07.184Z,75.58
2023-04-16T02:40:35.088Z,76.15
2023-04-16T02:43:02.938Z,75.79
2023-04-16T02:45:31.154Z,75.90
2023-04-16T02:47:58.364Z,75.65
2023-04-16T02:50:25.367Z,75.52
2023-04-16T02:52:52.276Z,75.65
2023-04-16T02:55:19.165Z,75.63
2023-04-16T02:57:46.122Z,76.44
2023-04-16T03:00:13.108Z,76.22
2023-04-16T03:02:40.192Z,76.15
2023-04-16T03:05:07.389Z,76.05
2023-04-16T03:07:34.813Z,75.94
2023-04-16T03:10:01.936Z,75.18
2023-04-16T03:12:29.020Z,75.55
2023-04-16T03:14:56.306Z,75.46
2023-04-16T03:17:23.449Z,75.37
2023-04-16T03:19:50.447Z,75.60
2023-04-16T03:22:19.422Z,75.74
2023-04-16T03:24:46.534Z,75.83
2023-04-16T03:27:13.589Z,75.72
2023-04-16T03:29:41.005Z,76.04
2023-04-16T03:32:08.123Z,75.86
2023-04-16T03:34:36.582Z,75.85
2023-04-16T03:37:05.677Z,76.12
2023-04-16T03:39:33.989Z,76.01
2023-04-16T03:42:01.854Z,75.71
2023-04-16T03:44:29.302Z,76.11
2023-04-16T03:46:56.490Z,76.28
2023-04-16T03:49:23.624Z,76.74
2023-04-16T03:51:51.009Z,76.92
2023-04-16T03:54:18.418Z,76.77
2023-04-16T03:56:49.558Z,76.47
2023-04-16T03:59:17.137Z,76.73
2023-04-16T04:01:44.263Z,76.64
2023-04-16T04:04:11.494Z,76.74
2023-04-16T04:06:38.521Z,77.19
2023-04-16T04:09:05.671Z,77.53
2023-04-16T04:11:33.105Z,77.36
2023-04-16T04:13:59.981Z,76.93
2023-04-16T04:16:26.929Z,76.82
2023-04-16T04:18:55.062Z,76.98
2023-04-16T04:21:22.591Z,76.89
2023-04-16T04:23:49.542Z,77.01
2023-04-16T04:26:16.612Z,77.21
2023-04-16T04:28:43.684Z,77.23
2023-04-16T04:31:10.665Z,77.34
2023-04-16T04:33:37.534Z,77.50
2023-04-16T04:36:04.583Z,77.73
2023-04-16T04:38:32.721Z,77.57
2023-04-16T04:40:59.734Z,77.37
2023-04-16T04:43:27.303Z,77.15
2023-04-16T04:45:54.386Z,76.82
2023-04-16T04:48:25.676Z,76.34
2023-04-16T04:50:53.340Z,75.30
2023-04-16T04:53:20.251Z,76.22
2023-04-16T04:55:50.896Z,76.15
2023-04-16T04:58:20.114Z,77.20
2023-04-16T05:00:46.965Z,77.14
2023-04-16T05:03:18.821Z,76.65
2023-04-16T05:05:45.721Z,76.64
2023-04-16T05:08:12.727Z,76.51
2023-04-16T05:10:39.669Z,75.61
2023-04-16T05:13:06.754Z,75.61
2023-04-16T05:15:33.906Z,75.27
2023-04-16T05:18:00.977Z,75.57
2023-04-16T05:20:28.010Z,75.02
2023-04-16T05:22:55.132Z,74.89
2023-04-16T05:25:22.251Z,74.71
2023-04-16T05:27:49.128Z,74.58
2023-04-16T05:30:15.921Z,74.28
2023-04-16T05:32:42.986Z,74.26
2023-04-16T05:35:10.536Z,73.42
2023-04-16T05:37:37.452Z,73.31
2023-04-16T05:40:04.758Z,72.94
2023-04-16T05:42:31.815Z,72.80
2023-04-16T05:44:59.006Z,72.07
2023-04-16T05:47:25.954Z,72.11
2023-04-16T05:49:52.873Z,72.32
2023-04-16T05:52:19.798Z,71.76
2023-04-16T05:54:46.698Z,70.55
2023-04-16T05:57:13.763Z,70.60
2023-04-16T05:59:40.937Z,70.58
2023-04-16T06:02:08.070Z,71.37
2023-04-16T06:04:35.582Z,70.47
2023-04-16T06:07:02.632Z,69.50
2023-04-16T06:09:30.030Z,70.00
2023-04-16T06:11:57.553Z,70.23
2023-04-16T06:14:24.561Z,69.29
2023-04-16T06:16:51.508Z,69.01
2023-04-16T06:19:18.412Z,68.68
2023-04-16T06:21:45.565Z,68.44
2023-04-16T06:24:12.753Z,68.13
2023-04-16T06:26:39.641Z,67.25
2023-04-16T06:29:06.466Z,67.27
2023-04-16T06:31:33.300Z,67.05
2023-04-16T06:34:00.179Z,66.99
2023-04-16T06:36:28.460Z,66.13
2023-04-16T06:38:55.351Z,66.22
2023-04-16T06:41:24.921Z,66.04
2023-04-16T06:43:51.847Z,66.02
2023-04-16T06:46:18.668Z,65.87
2023-04-16T06:48:45.727Z,65.46
2023-04-16T06:51:12.958Z,65.01
2023-04-16T06:53:40.024Z,65.03
2023-04-16T06:56:07.266Z,64.43
2023-04-16T06:58:34.230Z,63.04
2023-04-16T07:01:02.247Z,62.25
2023-04-16T07:03:29.371Z,61.45
2023-04-16T07:05:56.445Z,60.43
2023-04-16T07:08:24.152Z,60.86
2023-04-16T07:10:53.233Z,60.60
2023-04-16T07:13:20.347Z,60.40
2023-04-16T07:15:47.582Z,59.52
2023-04-16T07:18:15.311Z,59.78
2023-04-16T07:20:42.176Z,60.03
2023-04-16T07:23:09.149Z,59.77
2023-04-16T07:25:36.205Z,59.64
2023-04-16T07:28:03.426Z,59.31
2023-04-16T07:30:34.275Z,58.47
2023-04-16T07:33:02.787Z,57.48
2023-04-16T07:35:30.350Z,58.90
2023-04-16T07:37:57.505Z,58.36
2023-04-16T07:40:24.770Z,58.54
2023-04-16T07:42:51.971Z,57.63
2023-04-16T07:45:18.974Z,58.21
2023-04-16T07:47:46.092Z,57.80
2023-04-16T07:50:13.338Z,56.75
2023-04-16T07:52:41.836Z,57.91
2023-04-16T07:55:08.934Z,56.78
2023-04-16T07:57:35.984Z,55.34
2023-04-16T08:00:04.480Z,54.59
2023-04-16T08:02:40.782Z,54.43
2023-04-16T08:05:08.048Z,55.56
2023-04-16T08:07:35.314Z,54.68
2023-04-16T08:10:02.121Z,54.72
2023-04-16T08:12:29.298Z,54.93
2023-04-16T08:14:56.296Z,52.91
2023-04-16T08:17:23.268Z,53.17
2023-04-16T08:19:50.306Z,55.29
2023-04-16T08:22:17.667Z,54.19
2023-04-16T08:24:44.620Z,50.85
2023-04-16T08:27:18.316Z,50.23
2023-04-16T08:29:45.890Z,51.24
2023-04-16T08:32:13.139Z,50.37
2023-04-16T08:34:41.219Z,51.62
2023-04-16T08:37:08.485Z,48.59
2023-04-16T08:39:35.688Z,50.42
2023-04-16T08:42:04.697Z,49.61
2023-04-16T08:44:33.422Z,45.27
2023-04-16T08:47:01.736Z,45.74
2023-04-16T08:49:29.058Z,49.51
2023-04-16T08:51:56.629Z,48.96
2023-04-16T08:54:38.723Z,45.50
2023-04-16T08:57:07.206Z,42.98
2023-04-16T08:59:35.486Z,47.50
2023-04-16T09:02:02.795Z,44.20
2023-04-16T09:04:31.454Z,43.24
2023-04-16T09:06:58.897Z,40.92
2023-04-16T09:09:26.229Z,45.29
2023-04-16T09:11:53.617Z,43.15
2023-04-16T09:14:21.705Z,41.79
2023-04-16T09:16:49.193Z,39.00
2023-04-16T09:19:16.424Z,40.36
2023-04-16T09:21:46.439Z,36.23
2023-04-16T09:24:13.390Z,35.21
2023-04-16T09:26:43.762Z,32.90
2023-04-16T09:29:11.036Z,33.21
2023-04-16T09:31:38.273Z,33.30
2023-04-16T09:34:08.698Z,37.10
2023-04-16T09:36:36.338Z,41.02
2023-04-16T09:39:03.818Z,37.99
2023-04-16T09:41:32.705Z,34.87
2023-04-16T09:44:01.374Z,34.08
2023-04-16T09:46:33.442Z,30.09
2023-04-16T09:49:13.179Z,33.05
2023-04-16T09:51:50.382Z,32.38
2023-04-16T09:54:19.265Z,32.20
2023-04-16T09:56:46.632Z,33.38
2023-04-16T09:59:20.038Z,36.91
2023-04-16T10:01:48.916Z,31.06
2023-04-16T10:04:16.692Z,35.84
2023-04-16T10:06:46.506Z,32.49
2023-04-16T10:09:13.564Z,34.93
2023-04-16T10:11:40.922Z,30.75
2023-04-16T10:14:07.868Z,33.83
2023-04-16T10:16:34.942Z,31.64
2023-04-16T10:19:02.014Z,28.24
2023-04-16T10:21:33.107Z,30.79
2023-04-16T10:24:00.290Z,29.57
2023-04-16T10:26:28.976Z,32.85
2023-04-16T10:28:58.068Z,32.92
2023-04-16T10:31:26.482Z,34.96
2023-04-16T10:33:54.421Z,29.15
2023-04-16T10:36:26.094Z,30.15
2023-04-16T10:38:56.281Z,31.76
2023-04-16T10:41:25.001Z,31.07
2023-04-16T10:43:52.356Z,32.28
2023-04-16T10:46:21.080Z,32.35
2023-04-16T10:48:50.588Z,33.24
2023-04-16T10:51:31.937Z,32.43
2023-04-16T10:54:08.201Z,31.48
2023-04-16T10:56:36.007Z,30.43
2023-04-16T10:59:10.576Z,30.01
2023-04-16T11:01:41.268Z,31.90
2023-04-16T11:04:37.634Z,29.87
2023-04-16T11:07:04.852Z,33.97
2023-04-16T11:09:52.884Z,30.03
2023-04-16T11:12:19.720Z,26.39
2023-04-16T11:14:47.642Z,25.48
2023-04-16T11:17:14.914Z,27.05
2023-04-16T11:19:42.069Z,25.22
2023-04-16T11:22:11.481Z,27.79
2023-04-16T11:24:40.391Z,25.72
2023-04-16T11:27:07.840Z,29.69
2023-04-16T11:29:35.000Z,29.52
2023-04-16T11:32:02.272Z,29.70
2023-04-16T11:34:29.472Z,30.18
2023-04-16T11:36:56.715Z,28.65
2023-04-16T11:39:23.927Z,29.71
2023-04-16T11:41:51.996Z,27.30
2023-04-16T11:44:26.013Z,27.52
2023-04-16T11:46:54.044Z,27.19
2023-04-16T11:49:27.671Z,29.29
2023-04-16T11:51:54.976Z,31.46
2023-04-16T11:54:22.705Z,28.59
2023-04-16T11:56:50.557Z,26.71
2023-04-16T11:59:22.394Z,27.25
2023-04-16T12:01:50.843Z,27.60
2023-04-16T12:04:22.260Z,26.55
2023-04-16T12:07:08.016Z,26.89
2023-04-16T12:09:37.138Z,26.34
2023-04-16T12:12:06.515Z,27.67
2023-04-16T12:14:33.501Z,28.52
2023-04-16T12:17:18.964Z,27.75
2023-04-16T12:19:55.031Z,27.24
2023-04-16T12:22:36.735Z,29.37
2023-04-16T12:25:06.306Z,25.76
2023-04-16T12:27:47.162Z,24.45
2023-04-16T12:30:18.022Z,25.93
2023-04-16T12:32:46.322Z,26.61
2023-04-16T12:35:13.511Z,25.39
2023-04-16T12:37:41.163Z,24.41
2023-04-16T12:40:08.321Z,24.74
2023-04-16T12:42:35.591Z,26.14
2023-04-16T12:45:03.780Z,24.96
2023-04-16T12:47:31.363Z,25.92
2023-04-16T12:49:58.509Z,24.41
2023-04-16T12:52:25.849Z,25.22
2023-04-16T12:54:52.897Z,26.79
2023-04-16T12:57:20.052Z,28.23
2023-04-16T12:59:46.927Z,25.74
2023-04-16T13:02:13.962Z,27.65
2023-04-16T13:04:41.431Z,26.66
2023-04-16T13:07:08.465Z,29.09
2023-04-16T13:09:36.191Z,23.60
2023-04-16T13:12:04.144Z,23.70
2023-04-16T13:14:31.074Z,25.48
2023-04-16T13:16:57.913Z,27.19
2023-04-16T13:19:25.070Z,28.97
2023-04-16T13:21:52.749Z,28.32
2023-04-16T13:24:19.590Z,28.69
2023-04-16T13:26:46.539Z,26.56
2023-04-16T13:29:13.485Z,26.94
2023-04-16T13:31:40.704Z,26.51
2023-04-16T13:34:07.589Z,26.07
2023-04-16T13:36:34.881Z,27.49
2023-04-16T13:39:04.172Z,27.06
2023-04-16T13:41:31.342Z,27.64
2023-04-16T13:43:58.249Z,28.51
2023-04-16T13:46:26.165Z,27.27
2023-04-16T13:48:53.380Z,27.28
2023-04-16T13:51:20.313Z,25.85
2023-04-16T13:53:47.283Z,27.13
2023-04-16T13:56:14.340Z,26.06
2023-04-16T13:58:41.494Z,27.01
2023-04-16T14:01:09.380Z,26.28
2023-04-16T14:03:37.988Z,26.04
2023-04-16T14:06:05.082Z,25.46
2023-04-16T14:08:32.163Z,26.29
2023-04-16T14:10:59.135Z,26.70
2023-04-16T14:13:26.267Z,26.81
2023-04-16T14:15:53.848Z,26.09
2023-04-16T14:18:21.194Z,26.28
2023-04-16T14:20:48.113Z,27.41
2023-04-16T14:23:14.932Z,26.79
2023-04-16T14:25:41.853Z,27.36
2023-04-16T14:28:09.004Z,27.57
2023-04-16T14:30:36.018Z,26.41
2023-04-16T14:33:04.551Z,27.17
2023-04-16T14:35:32.474Z,27.38
2023-04-16T14:37:59.456Z,28.42
2023-04-16T14:40:26.512Z,28.19
2023-04-16T14:42:53.728Z,27.76
2023-04-16T14:45:20.681Z,26.54
2023-04-16T14:47:47.797Z,26.75
2023-04-16T14:50:15.264Z,28.90
2023-04-16T14:52:42.149Z,28.09
2023-04-16T14:55:09.032Z,27.96
2023-04-16T14:57:36.009Z,29.16
2023-04-16T15:00:07.394Z,28.26
2023-04-16T15:02:34.970Z,27.55
2023-04-16T15:05:02.165Z,29.41
2023-04-16T15:07:29.458Z,28.34
2023-04-16T15:09:56.381Z,28.58
2023-04-16T15:12:23.434Z,29.09
2023-04-16T15:14:50.416Z,28.86
2023-04-16T15:17:17.332Z,28.80
2023-04-16T15:19:44.177Z,29.63
2023-04-16T15:22:12.149Z,30.37
2023-04-16T15:24:39.160Z,29.79
2023-04-16T15:27:06.433Z,30.87
2023-04-16T15:29:33.720Z,31.65
2023-04-16T15:32:00.572Z,32.09
2023-04-16T15:34:27.728Z,32.54
2023-04-16T15:36:54.574Z,32.64
2023-04-16T15:39:21.763Z,33.53
2023-04-16T15:42:00.615Z,33.64
2023-04-16T15:44:29.513Z,33.94
2023-04-16T15:46:56.583Z,34.20
2023-04-16T15:49:24.238Z,34.42
2023-04-16T15:51:51.560Z,34.42
2023-04-16T15:54:18.811Z,34.76
2023-04-16T15:56:46.153Z,35.17
2023-04-16T15:59:13.153Z,34.83
2023-04-16T16:01:40.306Z,33.91
2023-04-16T16:04:07.645Z,33.93
2023-04-16T16:06:35.271Z,35.42
2023-04-16T16:09:02.162Z,37.42
2023-04-16T16:11:29.288Z,39.36
2023-04-16T16:13:56.460Z,39.54
2023-04-16T16:16:23.416Z,38.37
2023-04-16T16:18:50.314Z,38.26
2023-04-16T16:21:17.154Z,37.52
2023-04-16T16:23:43.973Z,37.67
2023-04-16T16:26:10.839Z,37.66
2023-04-16T16:28:37.937Z,37.72
2023-04-16T16:31:05.635Z,37.85
2023-04-16T16:33:32.672Z,38.21
2023-04-16T16:35:59.716Z,38.03
2023-04-16T16:38:26.765Z,38.66
2023-04-16T16:40:53.788Z,38.58
2023-04-16T16:43:21.009Z,38.94
2023-04-16T16:45:48.416Z,39.05
2023-04-16T16:48:15.298Z,39.27
2023-04-16T16:50:42.074Z,39.63
2023-04-16T16:53:09.196Z,39.99
2023-04-16T16:55:36.188Z,41.04
2023-04-16T16:58:03.048Z,42.69
2023-04-16T17:00:30.075Z,42.14
2023-04-16T17:02:57.197Z,42.11
2023-04-16T17:05:24.519Z,43.38
2023-04-16T17:07:51.518Z,43.76
2023-04-16T17:10:21.167Z,44.09
2023-04-16T17:12:48.486Z,44.94
2023-04-16T17:15:15.941Z,45.12
2023-04-16T17:17:43.113Z,45.65
2023-04-16T17:20:11.751Z,45.70
2023-04-16T17:22:39.315Z,46.60
2023-04-16T17:25:07.583Z,47.66
2023-04-16T17:27:34.540Z,47.61
2023-04-16T17:30:01.829Z,47.86
2023-04-16T17:32:29.710Z,47.77
2023-04-16T17:34:56.976Z,47.22
2023-04-16T17:37:24.068Z,47.96
2023-04-16T17:39:51.100Z,49.10
2023-04-16T17:42:18.151Z,49.42
2023-04-16T17:44:45.295Z,49.50
2023-04-16T17:47:12.341Z,49.44
2023-04-16T17:49:39.392Z,49.39
2023-04-16T17:52:06.867Z,49.36
2023-04-16T17:54:33.670Z,49.88
2023-04-16T17:57:01.288Z,49.73
2023-04-16T17:59:28.439Z,49.40
2023-04-16T18:01:56.238Z,49.17
2023-04-16T18:04:23.581Z,49.26
2023-04-16T18:06:50.909Z,49.32
2023-04-16T18:09:18.963Z,49.33
2023-04-16T18:11:46.050Z,50.83
2023-04-16T18:14:16.162Z,50.37
2023-04-16T18:16:43.137Z,50.88
2023-04-16T18:19:12.356Z,50.75
2023-04-16T18:21:39.373Z,50.83
2023-04-16T18:24:06.615Z,50.49
2023-04-16T18:26:35.770Z,51.08
2023-04-16T18:29:03.987Z,51.14
2023-04-16T18:31:31.260Z,51.03
2023-04-16T18:33:58.674Z,51.60
2023-04-16T18:36:26.147Z,50.45
2023-04-16T18:41:26.654Z,49.17
2023-04-16T18:43:54.004Z,48.48
2023-04-16T18:46:21.092Z,48.52
2023-04-16T18:48:48.023Z,48.70
2023-04-16T18:51:16.248Z,48.31
2023-04-16T18:53:46.305Z,47.71
2023-04-16T18:56:13.462Z,47.80
2023-04-16T18:58:40.535Z,48.02
2023-04-16T19:01:10.537Z,48.01
2023-04-16T19:03:38.685Z,47.44
2023-04-16T19:06:06.099Z,47.65
2023-04-16T19:08:33.137Z,47.29
2023-04-16T19:11:00.395Z,47.58
2023-04-16T19:13:27.423Z,47.53
2023-04-16T19:16:00.860Z,47.43
2023-04-16T19:18:27.720Z,47.37
2023-04-16T19:20:58.837Z,47.30
2023-04-16T19:23:26.215Z,47.41
2023-04-16T19:25:55.187Z,47.09
2023-04-16T19:28:23.018Z,47.18
2023-04-16T19:30:53.290Z,47.37
2023-04-16T19:33:20.212Z,47.46
2023-04-16T19:35:47.236Z,47.50
2023-04-16T19:38:14.481Z,47.42
2023-04-16T19:40:46.059Z,47.57
2023-04-16T19:43:13.019Z,47.45
2023-04-16T19:45:46.825Z,47.55
2023-04-16T19:48:13.921Z,47.63
2023-04-16T19:50:41.716Z,47.95
2023-04-16T19:53:09.031Z,48.00
2023-04-16T19:55:36.030Z,48.08
2023-04-16T19:58:06.026Z,48.01
2023-04-16T20:00:34.302Z,48.03
2023-04-16T20:03:01.294Z,47.83
2023-04-16T20:05:28.933Z,47.82
2023-04-16T20:07:56.294Z,47.85
2023-04-16T20:10:23.665Z,47.79
2023-04-16T20:12:50.776Z,47.61
2023-04-16T20:15:18.255Z,47.67
2023-04-16T20:17:45.563Z,47.64
2023-04-16T20:20:15.127Z,47.72
2023-04-16T20:22:42.762Z,47.85
2023-04-16T20:25:09.758Z,47.87
2023-04-16T20:27:36.658Z,47.96
2023-04-16T20:30:05.590Z,48.27
2023-04-16T20:32:32.949Z,48.16
2023-04-16T20:35:01.417Z,47.94
2023-04-16T20:37:28.640Z,47.93
2023-04-16T20:39:55.660Z,48.18
2023-04-16T20:42:23.011Z,47.95
2023-04-16T20:44:55.689Z,48.17
2023-04-16T20:47:22.850Z,48.53
2023-04-16T20:49:50.034Z,49.25
2023-04-16T20:52:17.057Z,49.25
2023-04-16T20:54:44.001Z,49.03
2023-04-16T20:57:11.061Z,48.59
2023-04-16T20:59:38.207Z,48.58
2023-04-16T21:02:05.691Z,48.59
2023-04-16T21:04:33.001Z,48.45
2023-04-16T21:07:02.693Z,48.69
2023-04-16T21:09:30.534Z,48.53
2023-04-16T21:11:57.390Z,48.80
2023-04-16T21:14:24.376Z,48.97
2023-04-16T21:16:51.237Z,49.09
2023-04-16T21:19:18.317Z,49.29
2023-04-16T21:21:45.485Z,49.20
2023-04-16T21:24:12.571Z,49.04
2023-04-16T21:26:39.493Z,49.24
2023-04-16T21:29:06.434Z,49.77
2023-04-16T21:31:33.640Z,49.62
2023-04-16T21:34:00.848Z,49.63
2023-04-16T21:36:28.823Z,49.70
2023-04-16T21:38:55.882Z,49.80
2023-04-16T21:41:22.928Z,49.92
2023-04-16T21:43:49.981Z,50.04
2023-04-16T21:46:17.039Z,50.57
2023-04-16T21:48:44.419Z,50.71
2023-04-16T21:51:11.343Z,50.74
2023-04-16T21:53:38.499Z,51.47
2023-04-16T21:56:05.965Z,51.88
2023-04-16T21:58:32.882Z,51.62
2023-04-16T22:00:59.920Z,51.40
2023-04-16T22:03:27.511Z,52.64
2023-04-16T22:06:00.132Z,52.60
2023-04-16T22:08:30.667Z,52.65
2023-04-16T22:10:58.764Z,53.47
2023-04-16T22:13:25.970Z,52.62
2023-04-16T22:15:53.189Z,54.76
2023-04-16T22:18:20.254Z,55.29
2023-04-16T22:20:50.398Z,54.66
2023-04-16T22:23:17.324Z,54.63
2023-04-16T22:25:44.322Z,56.21
2023-04-16T22:28:11.602Z,55.44
2023-04-16T22:30:38.537Z,55.36
2023-04-16T22:33:05.590Z,55.79
2023-04-16T22:35:32.779Z,55.58
2023-04-16T22:37:59.744Z,54.99
2023-04-16T22:40:26.741Z,54.96
2023-04-16T22:42:53.574Z,55.27
2023-04-16T22:45:20.405Z,56.06
2023-04-16T22:47:47.549Z,55.98
2023-04-16T22:50:14.839Z,55.80
2023-04-16T22:52:41.994Z,55.64
2023-04-16T22:55:09.151Z,55.32
2023-04-16T22:57:36.118Z,54.93
2023-04-16T23:00:05.874Z,56.06
2023-04-16T23:02:32.907Z,55.59
2023-04-16T23:05:00.230Z,55.74
2023-04-16T23:07:27.093Z,55.04
2023-04-16T23:09:54.018Z,55.24
2023-04-16T23:12:20.982Z,55.80
2023-04-16T23:14:48.751Z,55.83
2023-04-16T23:17:15.585Z,56.22
2023-04-16T23:19:42.424Z,57.60
2023-04-16T23:22:09.600Z,57.49
2023-04-16T23:24:36.522Z,57.25
2023-04-16T23:27:03.521Z,57.08
2023-04-16T23:29:31.275Z,57.25
2023-04-16T23:31:58.228Z,58.11
2023-04-16T23:34:25.462Z,58.60
2023-04-16T23:36:52.279Z,58.76
2023-04-16T23:39:19.158Z,59.50
2023-04-16T23:41:45.992Z,58.39
2023-04-16T23:44:12.920Z,59.26
2023-04-16T23:46:40.491Z,58.97
2023-04-16T23:49:07.499Z,59.16
2023-04-16T23:51:34.439Z,59.06
2023-04-16T23:54:01.385Z,58.48
2023-04-16T23:56:28.306Z,58.68
2023-04-16T23:58:55.632Z,58.67
